createdAt,value
2023-05-19T00:01:05.938Z,100.00
2023-05-19T00:03:37.661Z,100.00
2023-05-19T00:06:10.686Z,100.00
2023-05-19T00:08:41.163Z,100.00
2023-05-19T00:11:12.133Z,100.00
2023-05-19T00:13:41.917Z,100.00
2023-05-19T00:16:14.017Z,100.00
2023-05-19T00:18:43.669Z,100.00
2023-05-19T00:21:14.838Z,100.00
2023-05-19T00:23:44.319Z,100.00
2023-05-19T00:26:14.315Z,100.00
2023-05-19T00:28:43.899Z,100.00
2023-05-19T00:31:13.500Z,100.00
2023-05-19T00:33:43.164Z,100.00
2023-05-19T00:36:14.384Z,100.00
2023-05-19T00:38:43.965Z,100.00
2023-05-19T00:41:13.531Z,100.00
2023-05-19T00:43:43.145Z,100.00
2023-05-19T00:49:34.673Z,100.00
2023-05-19T00:52:04.967Z,100.00
2023-05-19T00:54:36.110Z,100.00
2023-05-19T00:57:06.191Z,100.00
2023-05-19T00:59:35.884Z,100.00
2023-05-19T01:02:06.033Z,100.00
2023-05-19T01:04:42.071Z,100.00
2023-05-19T01:07:12.844Z,100.00
2023-05-19T01:09:42.326Z,100.00
2023-05-19T01:12:12.215Z,100.00
2023-05-19T01:14:41.742Z,100.00
2023-05-19T01:17:23.450Z,100.00
2023-05-19T01:20:06.962Z,100.00
2023-05-19T01:23:24.143Z,100.00
2023-05-19T01:26:45.064Z,100.00
2023-05-19T01:29:52.962Z,100.00
2023-05-19T01:32:26.334Z,100.00
2023-05-19T01:34:58.054Z,100.00
2023-05-19T01:37:29.408Z,100.00
2023-05-19T01:39:59.632Z,100.00
2023-05-19T01:42:29.843Z,100.00
2023-05-19T01:45:00.422Z,100.00
2023-05-19T01:47:31.574Z,100.00
2023-05-19T01:50:01.179Z,100.00
2023-05-19T01:52:30.945Z,100.00
2023-05-19T01:55:01.993Z,100.00
2023-05-19T01:57:40.251Z,100.00
2023-05-19T02:00:21.342Z,100.00
2023-05-19T02:03:05.557Z,100.00
2023-05-19T02:05:45.966Z,100.00
2023-05-19T02:08:25.929Z,100.00
2023-05-19T02:11:07.706Z,100.00
2023-05-19T02:13:43.039Z,100.00
2023-05-19T02:16:15.886Z,100.00
2023-05-19T02:18:48.741Z,100.00
2023-05-19T02:21:18.356Z,100.00
2023-05-19T02:23:48.339Z,100.00
2023-05-19T02:26:17.859Z,100.00
2023-05-19T02:28:47.521Z,100.00
2023-05-19T02:31:17.078Z,100.00
2023-05-19T02:33:48.178Z,100.00
2023-05-19T02:36:19.436Z,100.00
2023-05-19T02:38:49.191Z,100.00
2023-05-19T02:41:18.802Z,100.00
2023-05-19T02:43:48.255Z,100.00
2023-05-19T02:46:17.791Z,100.00
2023-05-19T02:48:48.826Z,100.00
2023-05-19T02:51:21.150Z,100.00
2023-05-19T02:53:50.716Z,100.00
2023-05-19T02:56:20.184Z,100.00
2023-05-19T02:58:49.990Z,100.00
2023-05-19T03:01:21.597Z,100.00
2023-05-19T03:03:53.003Z,100.00
2023-05-19T03:06:23.847Z,100.00
2023-05-19T03:08:53.499Z,100.00
2023-05-19T03:11:23.523Z,100.00
2023-05-19T03:13:53.247Z,100.00
2023-05-19T03:16:22.814Z,100.00
2023-05-19T03:18:54.121Z,100.00
2023-05-19T03:21:23.670Z,100.00
2023-05-19T03:23:53.390Z,100.00
2023-05-19T03:26:23.262Z,100.00
2023-05-19T03:28:53.106Z,100.00
2023-05-19T03:31:22.751Z,100.00
2023-05-19T03:33:53.842Z,100.00
2023-05-19T03:36:23.416Z,100.00
2023-05-19T03:38:54.427Z,100.00
2023-05-19T03:41:23.870Z,100.00
2023-05-19T03:43:53.594Z,100.00
2023-05-19T03:46:23.163Z,100.00
2023-05-19T03:50:34.723Z,100.00
2023-05-19T03:53:04.515Z,100.00
2023-05-19T03:55:34.138Z,100.00
2023-05-19T03:58:03.721Z,100.00
2023-05-19T04:00:33.753Z,100.00
2023-05-19T04:03:03.626Z,100.00
2023-05-19T04:05:34.745Z,100.00
2023-05-19T04:08:04.307Z,100.00
2023-05-19T04:10:34.075Z,100.00
2023-05-19T04:13:03.762Z,100.00
2023-05-19T04:15:33.416Z,100.00
2023-05-19T04:18:02.859Z,100.00
2023-05-19T04:20:33.971Z,100.00
2023-05-19T04:23:03.673Z,100.00
2023-05-19T04:25:33.903Z,100.00
2023-05-19T04:28:03.517Z,100.00
2023-05-19T04:30:33.851Z,100.00
2023-05-19T04:33:05.108Z,100.00
2023-05-19T04:35:38.378Z,100.00
2023-05-19T04:38:07.961Z,98.22
2023-05-19T04:40:37.374Z,99.40
2023-05-19T04:43:07.600Z,98.54
2023-05-19T04:45:37.958Z,97.81
2023-05-19T04:48:08.335Z,96.11
2023-05-19T04:50:42.282Z,96.42
2023-05-19T04:53:12.062Z,96.45
2023-05-19T04:55:41.602Z,97.06
2023-05-19T04:58:11.142Z,92.53
2023-05-19T05:00:40.526Z,94.79
2023-05-19T05:03:10.179Z,95.44
2023-05-19T05:05:41.193Z,94.70
2023-05-19T05:08:12.422Z,95.58
2023-05-19T05:10:41.884Z,95.17
2023-05-19T05:13:12.487Z,93.40
2023-05-19T05:15:42.697Z,92.70
2023-05-19T05:18:13.593Z,93.90
2023-05-19T05:20:46.580Z,92.34
2023-05-19T05:23:17.086Z,91.60
2023-05-19T05:25:48.253Z,90.75
2023-05-19T05:28:18.140Z,90.95
2023-05-19T05:30:49.297Z,91.43
2023-05-19T05:33:22.546Z,90.85
2023-05-19T05:35:53.578Z,91.59
2023-05-19T05:38:23.195Z,88.27
2023-05-19T05:40:52.842Z,89.41
2023-05-19T05:43:22.344Z,89.23
2023-05-19T05:45:51.776Z,87.92
2023-05-19T05:48:22.360Z,88.20
2023-05-19T05:50:54.891Z,84.05
2023-05-19T05:53:28.062Z,84.69
2023-05-19T05:55:58.330Z,84.05
2023-05-19T05:58:28.963Z,85.53
2023-05-19T06:00:59.921Z,82.43
2023-05-19T06:03:29.551Z,85.39
2023-05-19T06:06:00.607Z,86.57
2023-05-19T06:08:30.271Z,84.63
2023-05-19T06:10:59.770Z,81.94
2023-05-19T06:13:29.278Z,83.59
2023-05-19T06:16:00.562Z,85.00
2023-05-19T06:18:31.461Z,85.23
2023-05-19T06:21:03.529Z,86.72
2023-05-19T06:23:33.244Z,84.84
2023-05-19T06:26:02.523Z,84.40
2023-05-19T06:28:33.341Z,82.51
2023-05-19T06:31:02.806Z,80.82
2023-05-19T06:33:32.867Z,82.41
2023-05-19T06:36:03.849Z,82.35
2023-05-19T06:38:33.376Z,82.89
2023-05-19T06:41:02.753Z,81.69
2023-05-19T06:43:32.279Z,82.09
2023-05-19T06:46:01.857Z,80.81
2023-05-19T06:50:34.741Z,82.46
2023-05-19T06:53:04.623Z,80.72
2023-05-19T06:55:37.088Z,81.45
2023-05-19T06:58:10.888Z,79.44
2023-05-19T07:00:40.501Z,78.58
2023-05-19T07:03:10.082Z,81.20
2023-05-19T07:05:41.056Z,77.13
2023-05-19T07:08:10.399Z,78.73
2023-05-19T07:10:39.941Z,77.33
2023-05-19T07:13:09.397Z,76.92
2023-05-19T07:15:38.909Z,77.86
2023-05-19T07:18:08.446Z,76.36
2023-05-19T07:20:39.425Z,76.11
2023-05-19T07:23:08.931Z,76.58
2023-05-19T07:25:39.632Z,76.93
2023-05-19T07:28:08.984Z,76.42
2023-05-19T07:30:39.243Z,73.23
2023-05-19T07:33:08.919Z,73.90
2023-05-19T07:35:40.408Z,75.95
2023-05-19T07:38:09.765Z,75.40
2023-05-19T07:40:39.432Z,74.23
2023-05-19T07:43:08.929Z,76.41
2023-05-19T07:45:38.497Z,77.05
2023-05-19T07:48:08.153Z,74.50
2023-05-19T07:50:37.733Z,74.31
2023-05-19T07:53:08.472Z,72.18
2023-05-19T07:55:37.882Z,74.00
2023-05-19T07:58:07.220Z,74.50
2023-05-19T08:00:37.131Z,74.95
2023-05-19T08:03:08.168Z,73.52
2023-05-19T08:05:37.984Z,71.80
2023-05-19T08:08:09.038Z,73.63
2023-05-19T08:10:38.597Z,74.36
2023-05-19T08:13:07.946Z,72.09
2023-05-19T08:15:37.394Z,73.29
2023-05-19T08:18:06.899Z,75.04
2023-05-19T08:20:37.017Z,72.55
2023-05-19T08:23:07.902Z,72.48
2023-05-19T08:25:37.434Z,72.74
2023-05-19T08:28:07.104Z,68.84
2023-05-19T08:30:36.551Z,68.83
2023-05-19T08:33:06.640Z,68.80
2023-05-19T08:35:36.032Z,67.78
2023-05-19T08:38:05.584Z,69.11
2023-05-19T08:40:40.034Z,70.42
2023-05-19T08:43:10.171Z,70.30
2023-05-19T08:45:41.777Z,70.33
2023-05-19T08:48:11.430Z,70.31
2023-05-19T08:50:43.891Z,72.08
2023-05-19T08:53:33.101Z,74.03
2023-05-19T08:56:12.285Z,71.52
2023-05-19T08:58:44.265Z,71.08
2023-05-19T09:01:17.451Z,72.83
2023-05-19T09:03:50.249Z,71.48
2023-05-19T09:06:20.121Z,70.48
2023-05-19T09:08:49.778Z,67.92
2023-05-19T09:11:22.809Z,69.07
2023-05-19T09:13:52.359Z,70.84
2023-05-19T09:16:22.295Z,67.50
2023-05-19T09:19:01.512Z,65.64
2023-05-19T09:21:32.511Z,65.75
2023-05-19T09:24:08.138Z,69.59
2023-05-19T09:26:44.228Z,68.23
2023-05-19T09:29:14.828Z,64.98
2023-05-19T09:31:51.936Z,65.81
2023-05-19T09:34:25.131Z,64.79
2023-05-19T09:36:55.391Z,66.12
2023-05-19T09:39:26.490Z,68.41
2023-05-19T09:41:59.270Z,65.02
2023-05-19T09:44:30.751Z,62.85
2023-05-19T09:50:35.914Z,66.81
2023-05-19T09:53:06.708Z,67.38
2023-05-19T09:55:37.379Z,66.38
2023-05-19T09:58:06.899Z,64.05
2023-05-19T10:00:36.481Z,66.07
2023-05-19T10:03:07.421Z,65.47
2023-05-19T10:05:38.738Z,64.57
2023-05-19T10:08:10.650Z,65.44
2023-05-19T10:10:41.118Z,61.18
2023-05-19T10:13:10.768Z,62.99
2023-05-19T10:15:50.018Z,61.24
2023-05-19T10:18:30.038Z,62.65
2023-05-19T10:21:02.960Z,64.42
2023-05-19T10:23:32.524Z,61.30
2023-05-19T10:26:05.321Z,59.65
2023-05-19T10:28:41.222Z,63.27
2023-05-19T10:31:15.114Z,64.16
2023-05-19T10:34:03.724Z,63.73
2023-05-19T10:36:47.924Z,62.00
2023-05-19T10:39:23.366Z,63.96
2023-05-19T10:42:06.229Z,60.91
2023-05-19T10:44:52.811Z,59.17
2023-05-19T10:47:26.406Z,58.45
2023-05-19T10:49:56.499Z,60.00
2023-05-19T10:52:27.308Z,59.92
2023-05-19T10:54:58.622Z,59.41
2023-05-19T10:57:32.069Z,55.47
2023-05-19T11:00:02.165Z,56.93
2023-05-19T11:02:42.854Z,55.27
2023-05-19T11:05:14.987Z,54.58
2023-05-19T11:08:02.530Z,57.22
2023-05-19T11:10:32.258Z,57.34
2023-05-19T11:13:01.811Z,59.35
2023-05-19T11:15:31.657Z,55.48
2023-05-19T11:18:04.146Z,55.55
2023-05-19T11:20:35.519Z,54.68
2023-05-19T11:23:11.001Z,56.98
2023-05-19T11:25:48.960Z,57.13
2023-05-19T11:28:20.458Z,56.95
2023-05-19T11:30:52.368Z,55.68
2023-05-19T11:33:27.608Z,56.38
2023-05-19T11:35:59.291Z,56.72
2023-05-19T11:38:31.418Z,55.40
2023-05-19T11:41:01.018Z,55.49
2023-05-19T11:43:30.619Z,57.24
2023-05-19T11:46:00.295Z,53.98
2023-05-19T11:48:31.511Z,52.36
2023-05-19T11:51:02.690Z,53.80
2023-05-19T11:53:36.395Z,54.46
2023-05-19T11:56:06.831Z,56.56
2023-05-19T11:58:36.353Z,55.44
2023-05-19T12:01:07.081Z,57.09
2023-05-19T12:03:36.667Z,57.68
2023-05-19T12:06:08.680Z,58.25
2023-05-19T12:08:39.961Z,55.23
2023-05-19T12:11:09.477Z,57.22
2023-05-19T12:13:39.023Z,56.41
2023-05-19T12:16:10.135Z,52.95
2023-05-19T12:18:40.562Z,55.98
2023-05-19T12:21:10.091Z,56.58
2023-05-19T12:23:41.773Z,55.97
2023-05-19T12:26:12.427Z,58.70
2023-05-19T12:28:41.692Z,55.26
2023-05-19T12:31:11.071Z,55.76
2023-05-19T12:33:40.763Z,58.05
2023-05-19T12:36:13.553Z,57.82
2023-05-19T12:38:45.709Z,57.63
2023-05-19T12:41:15.211Z,56.86
2023-05-19T12:43:44.541Z,55.41
2023-05-19T12:46:16.596Z,55.60
2023-05-19T12:50:34.720Z,57.25
2023-05-19T12:53:04.802Z,55.89
2023-05-19T12:55:42.432Z,53.34
2023-05-19T12:58:12.885Z,52.49
2023-05-19T13:00:47.691Z,49.94
2023-05-19T13:03:19.196Z,47.03
2023-05-19T13:05:52.107Z,50.56
2023-05-19T13:08:24.263Z,48.38
2023-05-19T13:10:53.738Z,49.92
2023-05-19T13:13:23.063Z,49.30
2023-05-19T13:15:52.642Z,52.77
2023-05-19T13:18:22.741Z,53.97
2023-05-19T13:20:54.684Z,51.38
2023-05-19T13:23:24.127Z,50.12
2023-05-19T13:25:53.602Z,50.98
2023-05-19T13:28:23.719Z,51.61
2023-05-19T13:30:53.264Z,51.18
2023-05-19T13:33:22.780Z,48.80
2023-05-19T13:35:53.666Z,50.36
2023-05-19T13:38:23.071Z,50.05
2023-05-19T13:40:52.510Z,51.91
2023-05-19T13:43:22.078Z,52.47
2023-05-19T13:45:51.976Z,50.70
2023-05-19T13:48:21.655Z,50.37
2023-05-19T13:50:54.656Z,47.33
2023-05-19T13:53:24.238Z,49.33
2023-05-19T13:55:55.391Z,49.19
2023-05-19T13:58:24.804Z,47.02
2023-05-19T14:00:56.646Z,47.32
2023-05-19T14:03:26.496Z,48.80
2023-05-19T14:05:57.509Z,50.00
2023-05-19T14:08:27.132Z,48.81
2023-05-19T14:10:57.561Z,51.67
2023-05-19T14:13:33.059Z,54.38
2023-05-19T14:16:06.319Z,59.48
2023-05-19T14:18:35.886Z,61.87
2023-05-19T14:21:07.439Z,62.14
2023-05-19T14:23:36.881Z,61.23
2023-05-19T14:26:06.472Z,62.37
2023-05-19T14:28:35.856Z,65.24
2023-05-19T14:31:06.241Z,65.77
2023-05-19T14:33:35.886Z,66.49
2023-05-19T14:36:08.075Z,66.79
2023-05-19T14:38:37.574Z,67.72
2023-05-19T14:41:07.619Z,67.52
2023-05-19T14:43:37.173Z,66.69
2023-05-19T14:46:07.188Z,67.34
2023-05-19T14:48:36.575Z,67.49
2023-05-19T14:51:07.558Z,68.53
2023-05-19T14:53:37.034Z,67.14
2023-05-19T14:56:07.904Z,67.08
2023-05-19T14:58:37.509Z,67.15
2023-05-19T15:01:07.262Z,67.33
2023-05-19T15:03:36.810Z,67.65
2023-05-19T15:06:11.709Z,67.78
2023-05-19T15:08:41.980Z,66.97
2023-05-19T15:11:11.440Z,67.71
2023-05-19T15:13:40.993Z,66.99
2023-05-19T15:16:17.602Z,67.53
2023-05-19T15:18:47.943Z,68.01
2023-05-19T15:21:18.898Z,69.28
2023-05-19T15:23:48.281Z,69.96
2023-05-19T15:26:17.746Z,70.80
2023-05-19T15:28:47.172Z,73.07
2023-05-19T15:31:16.681Z,74.04
2023-05-19T15:33:46.299Z,74.61
2023-05-19T15:36:16.851Z,76.05
2023-05-19T15:38:47.651Z,77.26
2023-05-19T15:41:17.107Z,78.52
2023-05-19T15:43:47.384Z,80.43
2023-05-19T15:46:19.322Z,81.08
2023-05-19T15:50:34.489Z,82.42
2023-05-19T15:53:04.161Z,82.42
2023-05-19T15:55:33.831Z,83.29
2023-05-19T15:58:03.143Z,83.52
2023-05-19T16:00:32.693Z,82.95
2023-05-19T16:03:04.917Z,82.02
2023-05-19T16:05:36.053Z,82.52
2023-05-19T16:08:07.711Z,82.44
2023-05-19T16:10:38.366Z,82.86
2023-05-19T16:13:07.750Z,83.86
2023-05-19T16:15:37.263Z,84.06
2023-05-19T16:18:06.788Z,83.73
2023-05-19T16:20:37.628Z,83.53
2023-05-19T16:23:07.137Z,81.56
2023-05-19T16:25:36.633Z,82.75
2023-05-19T16:28:06.607Z,82.92
2023-05-19T16:30:36.262Z,82.02
2023-05-19T16:33:06.134Z,81.57
2023-05-19T16:35:37.329Z,80.98
2023-05-19T16:38:06.799Z,80.95
2023-05-19T16:40:36.726Z,79.79
2023-05-19T16:43:06.312Z,79.80
2023-05-19T16:45:35.905Z,81.40
2023-05-19T16:48:05.693Z,82.58
2023-05-19T16:50:36.908Z,84.44
2023-05-19T16:53:06.627Z,85.79
2023-05-19T16:55:36.055Z,86.85
2023-05-19T16:58:05.470Z,88.42
2023-05-19T17:00:35.722Z,89.78
2023-05-19T17:03:06.336Z,91.78
2023-05-19T17:05:39.222Z,92.87
2023-05-19T17:08:08.680Z,92.58
2023-05-19T17:10:39.484Z,92.87
2023-05-19T17:13:08.998Z,94.00
2023-05-19T17:15:39.999Z,96.85
2023-05-19T17:18:12.684Z,96.19
2023-05-19T17:20:43.606Z,96.43
2023-05-19T17:23:13.057Z,97.18
2023-05-19T17:25:42.655Z,98.76
2023-05-19T17:28:12.230Z,96.75
2023-05-19T17:30:42.681Z,96.18
2023-05-19T17:33:13.585Z,97.13
2023-05-19T17:35:44.476Z,97.83
2023-05-19T17:38:14.016Z,98.58
2023-05-19T17:40:43.536Z,98.31
2023-05-19T17:43:13.023Z,98.34
2023-05-19T17:45:42.601Z,97.51
2023-05-19T17:48:11.995Z,97.75
2023-05-19T17:50:42.846Z,97.73
2023-05-19T17:53:12.970Z,97.85
2023-05-19T17:55:43.854Z,99.04
2023-05-19T17:58:13.829Z,100.00
2023-05-19T18:00:44.024Z,100.00
2023-05-19T18:03:14.582Z,100.00
2023-05-19T18:05:46.090Z,100.00
2023-05-19T18:08:16.828Z,100.00
2023-05-19T18:10:48.834Z,100.00
2023-05-19T18:13:18.265Z,100.00
2023-05-19T18:15:47.653Z,100.00
2023-05-19T18:18:17.102Z,100.00
2023-05-19T18:20:48.461Z,100.00
2023-05-19T18:23:18.358Z,100.00
2023-05-19T18:25:53.523Z,100.00
2023-05-19T18:28:22.926Z,100.00
2023-05-19T18:31:01.417Z,100.00
2023-05-19T18:33:31.472Z,100.00
2023-05-19T18:36:02.497Z,100.00
2023-05-19T18:38:31.938Z,100.00
2023-05-19T18:41:01.943Z,100.00
2023-05-19T18:43:32.702Z,100.00
2023-05-19T18:46:02.190Z,100.00
2023-05-19T18:50:34.045Z,100.00
2023-05-19T18:53:04.640Z,100.00
2023-05-19T18:55:34.227Z,100.00
2023-05-19T18:58:04.474Z,100.00
2023-05-19T19:00:34.323Z,100.00
2023-05-19T19:03:04.082Z,100.00
2023-05-19T19:05:35.101Z,100.00
2023-05-19T19:08:05.897Z,100.00
2023-05-19T19:10:39.266Z,100.00
2023-05-19T19:13:08.740Z,100.00
2023-05-19T19:15:39.954Z,100.00
2023-05-19T19:18:09.397Z,100.00
2023-05-19T19:20:40.445Z,100.00
2023-05-19T19:23:09.845Z,100.00
2023-05-19T19:25:39.297Z,100.00
2023-05-19T19:28:08.828Z,100.00
2023-05-19T19:30:38.397Z,100.00
2023-05-19T19:33:07.878Z,100.00
2023-05-19T19:35:38.795Z,100.00
2023-05-19T19:38:08.224Z,100.00
2023-05-19T19:40:37.645Z,99.27
2023-05-19T19:43:07.086Z,96.72
2023-05-19T19:45:39.287Z,95.66
2023-05-19T19:48:09.305Z,91.75
2023-05-19T19:50:40.319Z,89.13
2023-05-19T19:53:09.772Z,87.90
2023-05-19T19:55:39.187Z,86.53
2023-05-19T19:58:08.577Z,85.65
2023-05-19T20:00:38.057Z,86.25
2023-05-19T20:03:07.984Z,85.68
2023-05-19T20:05:41.177Z,86.40
2023-05-19T20:08:10.636Z,86.81
2023-05-19T20:10:40.140Z,90.64
2023-05-19T20:13:09.847Z,88.29
2023-05-19T20:15:39.322Z,88.12
2023-05-19T20:18:08.875Z,88.56
2023-05-19T20:20:39.860Z,87.30
2023-05-19T20:23:09.961Z,87.46
2023-05-19T20:25:58.452Z,87.15
2023-05-19T20:28:32.157Z,87.49
2023-05-19T20:31:01.546Z,86.31
2023-05-19T20:33:31.958Z,86.01
2023-05-19T20:36:02.726Z,83.84
2023-05-19T20:38:32.261Z,82.36
2023-05-19T20:41:04.051Z,81.99
2023-05-19T20:43:34.409Z,82.77
2023-05-19T20:46:04.064Z,82.90
2023-05-19T20:48:33.664Z,81.23
2023-05-19T20:51:05.680Z,82.70
2023-05-19T20:53:35.161Z,83.36
2023-05-19T20:56:06.998Z,84.15
2023-05-19T20:58:36.311Z,84.09
2023-05-19T21:01:06.164Z,83.46
2023-05-19T21:03:35.729Z,85.66
2023-05-19T21:06:06.992Z,86.89
2023-05-19T21:08:36.437Z,89.11
2023-05-19T21:11:06.618Z,89.24
2023-05-19T21:13:39.350Z,89.29
2023-05-19T21:16:09.208Z,88.67
2023-05-19T21:18:38.654Z,87.56
2023-05-19T21:21:09.514Z,87.53
2023-05-19T21:23:39.138Z,87.33
2023-05-19T21:26:08.633Z,86.67
2023-05-19T21:28:38.103Z,86.79
2023-05-19T21:31:07.734Z,86.71
2023-05-19T21:33:37.256Z,87.30
2023-05-19T21:36:08.917Z,86.23
2023-05-19T21:38:38.369Z,85.79
2023-05-19T21:41:08.002Z,85.75
2023-05-19T21:43:37.419Z,86.03
2023-05-19T21:46:07.796Z,84.64
2023-05-19T21:50:37.127Z,84.08
2023-05-19T21:53:06.643Z,83.72
2023-05-19T21:55:36.323Z,84.81
2023-05-19T21:58:05.711Z,86.18
2023-05-19T22:00:37.016Z,85.61
2023-05-19T22:03:06.830Z,85.32
2023-05-19T22:05:38.481Z,84.52
2023-05-19T22:08:08.216Z,84.58
2023-05-19T22:10:38.883Z,85.54
2023-05-19T22:13:08.826Z,84.97
2023-05-19T22:15:38.470Z,84.81
2023-05-19T22:18:08.353Z,84.30
2023-05-19T22:20:39.451Z,83.21
2023-05-19T22:23:09.080Z,82.75
2023-05-19T22:25:38.570Z,82.43
2023-05-19T22:28:09.273Z,82.40
2023-05-19T22:30:41.091Z,82.36
2023-05-19T22:33:11.437Z,82.40
2023-05-19T22:35:43.017Z,82.45
2023-05-19T22:38:13.157Z,83.05
2023-05-19T22:40:42.593Z,84.38
2023-05-19T22:43:12.047Z,83.79
2023-05-19T22:45:41.858Z,84.08
2023-05-19T22:48:11.775Z,84.50
2023-05-19T22:50:42.804Z,85.68
2023-05-19T22:53:12.148Z,85.45
2023-05-19T22:55:41.912Z,84.99
2023-05-19T22:58:11.476Z,85.01
2023-05-19T23:00:40.818Z,84.92
2023-05-19T23:03:13.237Z,84.92
2023-05-19T23:05:44.171Z,85.02
2023-05-19T23:08:13.598Z,84.58
2023-05-19T23:10:44.293Z,83.40
2023-05-19T23:13:13.751Z,82.10
2023-05-19T23:15:43.139Z,81.69
2023-05-19T23:18:12.567Z,80.93
2023-05-19T23:20:43.814Z,80.51
2023-05-19T23:23:13.366Z,79.92
2023-05-19T23:25:42.614Z,79.68
2023-05-19T23:28:13.454Z,78.24
2023-05-19T23:30:42.746Z,78.08
2023-05-19T23:33:12.361Z,78.05
2023-05-19T23:35:43.768Z,77.56
2023-05-19T23:38:13.215Z,76.82
2023-05-19T23:40:42.725Z,76.63
2023-05-19T23:43:12.145Z,76.12
2023-05-19T23:45:41.631Z,77.33
2023-05-19T23:48:11.310Z,76.15
2023-05-19T23:50:40.941Z,76.54
2023-05-19T23:53:11.802Z,76.28
2023-05-19T23:55:41.286Z,76.29
2023-05-19T23:58:10.648Z,75.91
